createdAt,value
2022-07-30T00:00:31.381Z,101366.56
2022-07-30T00:02:59.599Z,101360.81
2022-07-30T00:05:27.954Z,101355.47
2022-07-30T00:07:57.632Z,101355.88
2022-07-30T00:10:26.047Z,101350.75
2022-07-30T00:12:54.318Z,101345.63
2022-07-30T00:15:22.614Z,101345.44
2022-07-30T00:17:50.842Z,101342.97
2022-07-30T00:20:19.563Z,101341.13
2022-07-30T00:22:48.158Z,101341.13
2022-07-30T00:25:19.721Z,101340.91
2022-07-30T00:27:47.978Z,101341.34
2022-07-30T00:30:16.638Z,101342.38
2022-07-30T00:32:44.944Z,101334.13
2022-07-30T00:35:13.830Z,101332.72
2022-07-30T00:37:42.211Z,101328.78
2022-07-30T00:40:11.562Z,101334.13
2022-07-30T00:42:42.896Z,101327.16
2022-07-30T00:45:12.875Z,101320.16
2022-07-30T00:47:42.024Z,101310.28
2022-07-30T00:50:12.417Z,101310.13
2022-07-30T00:52:42.041Z,101297.56
2022-07-30T00:55:12.908Z,101304.16
2022-07-30T00:57:43.531Z,101304.78
2022-07-30T01:00:15.389Z,101303.97
2022-07-30T01:02:43.506Z,101295.72
2022-07-30T01:05:12.211Z,101302.13
2022-07-30T01:07:40.658Z,101305.59
2022-07-30T01:10:11.169Z,101297.00
2022-07-30T01:12:40.231Z,101296.34
2022-07-30T01:15:11.827Z,101301.69
2022-07-30T01:17:40.810Z,101294.09
2022-07-30T01:20:14.528Z,101283.84
2022-07-30T01:22:53.333Z,101283.63
2022-07-30T01:25:31.338Z,101271.66
2022-07-30T01:28:05.509Z,101281.53
2022-07-30T01:30:37.691Z,101290.38
2022-07-30T01:33:07.454Z,101278.50
2022-07-30T01:35:36.985Z,101273.38
2022-07-30T01:38:07.967Z,101281.81
2022-07-30T01:40:37.546Z,101273.38
2022-07-30T01:43:08.874Z,101266.22
2022-07-30T01:45:41.999Z,101267.66
2022-07-30T01:48:14.800Z,101264.19
2022-07-30T01:50:47.701Z,101254.13
2022-07-30T01:53:18.128Z,101253.09
2022-07-30T01:55:47.919Z,101246.09
2022-07-30T01:58:20.434Z,101239.72
2022-07-30T02:00:51.042Z,101233.75
2022-07-30T02:03:19.325Z,101231.09
2022-07-30T02:05:53.967Z,101221.03
2022-07-30T02:08:28.964Z,101226.59
2022-07-30T02:11:05.872Z,101224.09
2022-07-30T02:13:43.362Z,101218.38
2022-07-30T02:16:18.206Z,101213.88
2022-07-30T02:18:58.377Z,101208.94
2022-07-30T02:21:34.628Z,101192.91
2022-07-30T02:24:08.759Z,101198.25
2022-07-30T02:26:39.668Z,101187.56
2022-07-30T02:29:11.599Z,101183.69
2022-07-30T02:31:42.145Z,101174.03
2022-07-30T02:34:12.110Z,101164.97
2022-07-30T02:36:42.818Z,101155.34
2022-07-30T02:39:11.621Z,101140.13
2022-07-30T02:41:44.564Z,101151.44
2022-07-30T02:44:19.611Z,101139.56
2022-07-30T02:46:49.456Z,101128.28
2022-07-30T02:49:21.767Z,101122.31
2022-07-30T02:51:51.874Z,101119.22
2022-07-30T02:54:22.616Z,101106.44
2022-07-30T02:56:53.176Z,101106.69
2022-07-30T02:59:26.244Z,101096.22
2022-07-30T03:01:56.157Z,101088.22
2022-07-30T03:04:25.316Z,101084.91
2022-07-30T03:06:54.677Z,101078.97
2022-07-30T03:09:23.425Z,101071.78
2022-07-30T03:11:54.153Z,101075.50
2022-07-30T03:14:24.481Z,101072.00
2022-07-30T03:16:58.470Z,101069.53
2022-07-30T03:19:30.944Z,101068.94
2022-07-30T03:22:02.465Z,101056.41
2022-07-30T03:24:32.551Z,101048.81
2022-07-30T03:27:04.070Z,101050.91
2022-07-30T03:29:36.087Z,101042.25
2022-07-30T03:32:06.206Z,101032.22
2022-07-30T03:34:36.054Z,101037.78
2022-07-30T03:37:06.600Z,101034.47
2022-07-30T03:39:36.544Z,101032.44
2022-07-30T03:42:07.958Z,101031.41
2022-07-30T03:44:38.663Z,101029.75
2022-07-30T03:47:08.130Z,101026.88
2022-07-30T03:49:36.392Z,101026.88
2022-07-30T03:52:05.574Z,101025.22
2022-07-30T03:54:34.556Z,101027.84
2022-07-30T03:57:03.698Z,101028.44
2022-07-30T03:59:32.563Z,101028.25
2022-07-30T04:02:06.013Z,101024.28
2022-07-30T04:04:35.702Z,101016.28
2022-07-30T04:07:04.180Z,101021.69
2022-07-30T04:09:32.618Z,101029.47
2022-07-30T04:12:00.776Z,101021.69
2022-07-30T04:14:28.969Z,101019.84
2022-07-30T04:17:05.098Z,101015.94
2022-07-30T04:19:39.719Z,101018.41
2022-07-30T04:22:10.158Z,101018.84
2022-07-30T04:24:41.431Z,101015.56
2022-07-30T04:27:10.411Z,101018.22
2022-07-30T04:29:38.810Z,101015.41
2022-07-30T04:32:09.772Z,101021.78
2022-07-30T04:34:38.398Z,101015.41
2022-07-30T04:37:06.780Z,101012.13
2022-07-30T04:39:35.145Z,101011.31
2022-07-30T04:42:03.514Z,101004.13
2022-07-30T04:44:31.793Z,100998.78
2022-07-30T04:47:00.179Z,100993.66
2022-07-30T04:49:31.357Z,100983.00
2022-07-30T04:52:00.167Z,100983.00
2022-07-30T04:54:36.333Z,100977.19
2022-07-30T04:57:06.141Z,100979.66
2022-07-30T04:59:37.362Z,100985.22
2022-07-30T05:02:08.023Z,100989.72
2022-07-30T05:04:38.996Z,100992.41
2022-07-30T05:07:08.379Z,100993.03
2022-07-30T05:09:37.914Z,100985.59
2022-07-30T05:12:11.183Z,100986.63
2022-07-30T05:14:39.449Z,100990.13
2022-07-30T05:17:07.767Z,100970.81
2022-07-30T05:19:37.315Z,100970.78
2022-07-30T05:22:06.789Z,100972.41
2022-07-30T05:24:35.146Z,100974.50
2022-07-30T05:27:03.811Z,100979.22
2022-07-30T05:29:32.202Z,100984.56
2022-07-30T05:32:03.276Z,100982.50
2022-07-30T05:34:32.050Z,100986.81
2022-07-30T05:37:02.090Z,100991.91
2022-07-30T05:39:30.771Z,100986.81
2022-07-30T05:41:59.060Z,100983.69
2022-07-30T05:44:27.301Z,100986.97
2022-07-30T05:46:55.560Z,100998.25
2022-07-30T05:49:23.956Z,100994.56
2022-07-30T05:51:52.309Z,100989.41
2022-07-30T05:54:21.843Z,100994.91
2022-07-30T05:56:53.161Z,101004.94
2022-07-30T05:59:21.967Z,101000.66
2022-07-30T06:01:50.234Z,101009.69
2022-07-30T06:04:18.415Z,101007.63
2022-07-30T06:06:46.610Z,101012.97
2022-07-30T06:09:15.137Z,101011.09
2022-07-30T06:11:44.862Z,101016.09
2022-07-30T06:14:13.107Z,101019.19
2022-07-30T06:16:41.860Z,101016.09
2022-07-30T06:19:10.077Z,101024.09
2022-07-30T06:22:01.809Z,101029.44
2022-07-30T06:24:35.428Z,101021.03
2022-07-30T06:27:05.776Z,101014.06
2022-07-30T06:29:33.984Z,101014.88
2022-07-30T06:32:02.187Z,101006.41
2022-07-30T06:34:30.491Z,101017.09
2022-07-30T06:36:58.943Z,101018.75
2022-07-30T06:39:56.368Z,101013.41
2022-07-30T06:42:17.520Z,101007.25
2022-07-30T06:44:45.719Z,101004.78
2022-07-30T06:47:13.875Z,101008.28
2022-07-30T06:49:42.039Z,101007.06
2022-07-30T06:52:10.223Z,100998.88
2022-07-30T06:54:38.469Z,100997.66
2022-07-30T06:57:06.667Z,101005.66
2022-07-30T06:59:56.568Z,100994.97
2022-07-30T07:02:25.963Z,100992.97
2022-07-30T07:04:54.251Z,100998.06
2022-07-30T07:07:40.361Z,100985.38
2022-07-30T07:10:10.189Z,100993.34
2022-07-30T07:12:38.519Z,100983.69
2022-07-30T07:15:10.082Z,100990.22
2022-07-30T07:17:38.443Z,100988.00
2022-07-30T07:20:07.500Z,100986.53
2022-07-30T07:22:35.688Z,100979.78
2022-07-30T07:25:04.064Z,100982.66
2022-07-30T07:27:32.417Z,100974.84
2022-07-30T07:30:01.718Z,100973.84
2022-07-30T07:32:35.330Z,100975.63
2022-07-30T07:35:03.895Z,100974.81
2022-07-30T07:37:32.205Z,100969.31
2022-07-30T07:40:00.469Z,100971.59
2022-07-30T07:42:28.730Z,100972.19
2022-07-30T07:44:57.004Z,100974.28
2022-07-30T07:47:25.297Z,100965.44
2022-07-30T07:49:57.651Z,100971.16
2022-07-30T07:52:25.769Z,100961.31
2022-07-30T07:54:53.897Z,100952.69
2022-07-30T07:57:22.163Z,100949.81
2022-07-30T07:59:51.796Z,100948.53
2022-07-30T08:02:20.009Z,100945.44
2022-07-30T08:04:48.169Z,100950.16
2022-07-30T08:07:17.840Z,100937.44
2022-07-30T08:09:46.042Z,100946.03
2022-07-30T08:12:14.266Z,100946.19
2022-07-30T08:14:42.533Z,100945.38
2022-07-30T08:17:10.922Z,100943.97
2022-07-30T08:19:39.115Z,100938.00
2022-07-30T08:22:07.407Z,100943.97
2022-07-30T08:24:36.915Z,100940.69
2022-07-30T08:27:05.541Z,100939.06
2022-07-30T08:29:34.073Z,100935.19
2022-07-30T08:32:02.807Z,100924.66
2022-07-30T08:34:31.139Z,100933.28
2022-07-30T08:36:59.451Z,100939.81
2022-07-30T08:39:27.629Z,100934.28
2022-07-30T08:41:58.856Z,100927.56
2022-07-30T08:44:28.611Z,100924.66
2022-07-30T08:46:58.577Z,100925.03
2022-07-30T08:49:27.660Z,100911.47
2022-07-30T08:51:56.503Z,100900.72
2022-07-30T08:54:24.924Z,100907.25
2022-07-30T08:56:53.484Z,100908.91
2022-07-30T08:59:25.315Z,100896.13
2022-07-30T09:02:13.702Z,100903.94
2022-07-30T09:04:42.120Z,100900.22
2022-07-30T09:07:10.256Z,100894.41
2022-07-30T09:09:38.429Z,100896.78
2022-07-30T09:12:46.506Z,100883.81
2022-07-30T09:15:18.396Z,100890.56
2022-07-30T09:17:52.838Z,100881.88
2022-07-30T09:20:23.433Z,100884.28
2022-07-30T09:22:53.157Z,100884.66
2022-07-30T09:25:39.286Z,100890.38
2022-07-30T09:28:16.383Z,100895.06
2022-07-30T09:30:49.526Z,100892.72
2022-07-30T09:33:33.385Z,100899.50
2022-07-30T09:36:02.369Z,100900.69
2022-07-30T09:38:32.130Z,100901.88
2022-07-30T09:41:07.991Z,100905.13
2022-07-30T09:43:47.231Z,100910.47
2022-07-30T09:46:17.721Z,100914.75
2022-07-30T09:48:47.002Z,100919.41
2022-07-30T09:51:15.969Z,100921.47
2022-07-30T09:53:59.218Z,100924.94
2022-07-30T09:56:30.343Z,100924.75
2022-07-30T09:58:58.594Z,100924.66
2022-07-30T10:01:47.184Z,100921.28
2022-07-30T10:04:26.181Z,100928.66
2022-07-30T10:06:55.390Z,100928.13
2022-07-30T10:09:30.822Z,100921.28
2022-07-30T10:12:02.690Z,100921.63
2022-07-30T10:14:34.869Z,100923.25
2022-07-30T10:17:13.289Z,100929.44
2022-07-30T10:19:42.018Z,100938.63
2022-07-30T10:22:11.679Z,100935.66
2022-07-30T10:24:41.648Z,100940.69
2022-07-30T10:27:11.168Z,100943.72
2022-07-30T10:29:42.739Z,100959.38
2022-07-30T10:32:12.688Z,100960.22
2022-07-30T10:34:42.452Z,100970.25
2022-07-30T10:37:15.798Z,100977.72
2022-07-30T10:39:51.986Z,100989.63
2022-07-30T10:42:37.415Z,101004.63
2022-07-30T10:45:19.732Z,101008.50
2022-07-30T10:47:51.383Z,101015.84
2022-07-30T10:50:22.821Z,101028.78
2022-07-30T10:52:52.396Z,101032.59
2022-07-30T10:55:32.874Z,101037.63
2022-07-30T10:58:08.512Z,101043.44
2022-07-30T11:00:58.680Z,101056.59
2022-07-30T11:03:31.397Z,101058.47
2022-07-30T11:06:29.461Z,101056.53
2022-07-30T11:08:58.237Z,101061.06
2022-07-30T11:12:01.098Z,101067.31
2022-07-30T11:15:06.269Z,101081.19
2022-07-30T11:18:04.393Z,101089.03
2022-07-30T11:20:34.845Z,101106.19
2022-07-30T11:23:35.652Z,101119.34
2022-07-30T11:26:04.452Z,101124.47
2022-07-30T11:28:36.678Z,101128.78
2022-07-30T11:31:09.996Z,101128.19
2022-07-30T11:33:39.129Z,101135.56
2022-07-30T11:36:13.630Z,101150.81
2022-07-30T11:39:01.130Z,101162.81
2022-07-30T11:41:35.426Z,101166.06
2022-07-30T11:44:29.206Z,101164.56
2022-07-30T11:46:57.891Z,101164.00
2022-07-30T11:49:27.302Z,101163.91
2022-07-30T11:51:57.065Z,101168.13
2022-07-30T11:54:26.200Z,101157.50
2022-07-30T11:57:00.848Z,101178.50
2022-07-30T11:59:32.022Z,101176.78
2022-07-30T12:02:02.291Z,101179.34
2022-07-30T12:04:31.248Z,101179.94
2022-07-30T12:07:00.883Z,101183.44
2022-07-30T12:09:30.027Z,101179.84
2022-07-30T12:11:58.822Z,101186.72
2022-07-30T12:14:38.382Z,101196.25
2022-07-30T12:17:06.663Z,101208.94
2022-07-30T12:19:47.589Z,101204.25
2022-07-30T12:22:18.292Z,101208.34
2022-07-30T12:24:46.480Z,101198.91
2022-07-30T12:27:14.831Z,101213.25
2022-07-30T12:29:43.111Z,101218.44
2022-07-30T12:32:11.372Z,101211.44
2022-07-30T12:34:39.645Z,101214.56
2022-07-30T12:37:11.856Z,101218.31
2022-07-30T12:39:41.477Z,101205.16
2022-07-30T12:42:19.318Z,101199.22
2022-07-30T12:44:49.342Z,101196.22
2022-07-30T12:47:24.243Z,101207.63
2022-07-30T12:49:53.601Z,101203.09
2022-07-30T12:52:28.285Z,101202.28
2022-07-30T12:55:07.436Z,101196.59
2022-07-30T12:57:55.131Z,101213.69
2022-07-30T13:00:24.318Z,101208.25
2022-07-30T13:02:52.778Z,101206.94
2022-07-30T13:05:21.654Z,101212.31
2022-07-30T13:07:57.780Z,101213.38
2022-07-30T13:10:31.263Z,101221.66
2022-07-30T13:13:00.265Z,101224.34
2022-07-30T13:15:28.554Z,101224.34
2022-07-30T13:17:56.721Z,101219.22
2022-07-30T13:20:24.962Z,101222.97
2022-07-30T13:22:53.302Z,101221.22
2022-07-30T13:25:22.528Z,101216.34
2022-07-30T13:27:52.061Z,101220.88
2022-07-30T13:30:20.391Z,101235.81
2022-07-30T13:32:48.670Z,101224.63
2022-07-30T13:35:16.816Z,101227.53
2022-07-30T13:37:45.108Z,101221.38
2022-07-30T13:40:13.675Z,101219.59
2022-07-30T13:42:42.489Z,101210.84
2022-07-30T13:45:12.621Z,101214.81
2022-07-30T13:47:40.938Z,101213.03
2022-07-30T13:50:09.619Z,101219.88
2022-07-30T13:52:37.952Z,101225.16
2022-07-30T13:55:06.880Z,101227.91
2022-07-30T13:57:35.142Z,101224.97
2022-07-30T14:00:03.801Z,101227.75
2022-07-30T14:02:34.402Z,101235.72
2022-07-30T14:05:07.301Z,101223.91
2022-07-30T14:07:36.178Z,101226.94
2022-07-30T14:10:07.102Z,101231.69
2022-07-30T14:12:35.494Z,101226.81
2022-07-30T14:15:03.710Z,101230.31
2022-07-30T14:17:33.656Z,101242.34
2022-07-30T14:20:02.146Z,101232.81
2022-07-30T14:22:30.376Z,101239.00
2022-07-30T14:25:00.304Z,101236.22
2022-07-30T14:27:28.480Z,101239.88
2022-07-30T14:29:56.903Z,101240.59
2022-07-30T14:32:26.998Z,101232.63
2022-07-30T14:34:59.896Z,101242.44
2022-07-30T14:37:28.178Z,101238.38
2022-07-30T14:39:56.358Z,101231.63
2022-07-30T14:42:25.500Z,101236.03
2022-07-30T14:44:56.859Z,101230.81
2022-07-30T14:47:25.329Z,101233.63
2022-07-30T14:49:53.565Z,101224.50
2022-07-30T14:52:23.246Z,101219.25
2022-07-30T14:54:51.429Z,101218.09
2022-07-30T14:57:19.942Z,101208.50
2022-07-30T14:59:48.123Z,101211.09
2022-07-30T15:02:16.755Z,101219.81
2022-07-30T15:04:45.087Z,101212.59
2022-07-30T15:07:13.605Z,101216.56
2022-07-30T15:09:43.200Z,101202.56
2022-07-30T15:12:13.161Z,101196.94
2022-07-30T15:14:52.347Z,101195.94
2022-07-30T15:17:20.737Z,101195.31
2022-07-30T15:19:50.868Z,101204.56
2022-07-30T15:22:19.850Z,101198.38
2022-07-30T15:24:49.649Z,101190.28
2022-07-30T15:27:17.982Z,101181.66
2022-07-30T15:29:46.236Z,101180.94
2022-07-30T15:32:14.463Z,101170.44
2022-07-30T15:34:42.595Z,101176.06
2022-07-30T15:37:10.824Z,101169.84
2022-07-30T15:39:39.093Z,101168.47
2022-07-30T15:42:08.929Z,101159.34
2022-07-30T15:44:42.283Z,101159.72
2022-07-30T15:47:16.574Z,101152.84
2022-07-30T15:49:44.914Z,101142.94
2022-07-30T15:52:13.276Z,101140.25
2022-07-30T15:54:41.914Z,101135.69
2022-07-30T15:57:11.471Z,101134.28
2022-07-30T15:59:39.572Z,101130.78
2022-07-30T16:02:07.924Z,101127.28
2022-07-30T16:04:36.181Z,101130.41
2022-07-30T16:07:05.399Z,101117.25
2022-07-30T16:09:33.716Z,101111.78
2022-07-30T16:12:02.520Z,101104.53
2022-07-30T16:14:32.501Z,101097.56
2022-07-30T16:17:00.706Z,101081.09
2022-07-30T16:19:28.979Z,101073.88
2022-07-30T16:21:57.264Z,101065.84
2022-07-30T16:24:25.524Z,101055.81
2022-07-30T16:26:53.800Z,101054.63
2022-07-30T16:29:21.984Z,101044.50
2022-07-30T16:31:52.078Z,101031.28
2022-07-30T16:34:23.037Z,101027.22
2022-07-30T16:36:54.884Z,101023.94
2022-07-30T16:39:23.293Z,101026.50
2022-07-30T16:41:51.638Z,101022.06
2022-07-30T16:44:19.994Z,101014.72
2022-07-30T16:46:48.805Z,101013.09
2022-07-30T16:49:18.597Z,101002.00
2022-07-30T16:51:46.803Z,100996.66
2022-07-30T16:54:15.130Z,100985.94
2022-07-30T16:56:43.742Z,100981.50
2022-07-30T16:59:13.826Z,100972.88
2022-07-30T17:01:42.629Z,100968.78
2022-07-30T17:04:10.843Z,100962.63
2022-07-30T17:06:44.308Z,100960.16
2022-07-30T17:09:15.712Z,100953.53
2022-07-30T17:11:47.038Z,100955.16
2022-07-30T17:14:22.288Z,100938.72
2022-07-30T17:16:51.064Z,100936.53
2022-07-30T17:19:19.448Z,100927.31
2022-07-30T17:21:49.065Z,100924.28
2022-07-30T17:24:17.604Z,100913.56
2022-07-30T17:26:47.072Z,100910.53
2022-07-30T17:29:16.812Z,100899.81
2022-07-30T17:31:46.363Z,100899.00
2022-07-30T17:34:20.356Z,100886.44
2022-07-30T17:36:52.637Z,100883.75
2022-07-30T17:40:27.223Z,100880.88
2022-07-30T17:42:11.066Z,100865.13
2022-07-30T17:44:41.246Z,100854.75
2022-07-30T17:47:14.665Z,100840.91
2022-07-30T17:49:46.392Z,100836.13
2022-07-30T17:52:16.072Z,100820.41
2022-07-30T17:54:44.278Z,100821.69
2022-07-30T17:57:15.321Z,100815.50
2022-07-30T17:59:43.885Z,100812.25
2022-07-30T18:02:12.246Z,100811.69
2022-07-30T18:04:40.530Z,100802.25
2022-07-30T18:07:08.997Z,100791.88
2022-07-30T18:09:40.206Z,100784.06
2022-07-30T18:12:08.559Z,100778.69
2022-07-30T18:14:37.482Z,100774.41
2022-07-30T18:17:08.988Z,100779.53
2022-07-30T18:19:39.416Z,100783.84
2022-07-30T18:22:09.437Z,100779.31
2022-07-30T18:24:40.287Z,100783.25
2022-07-30T18:27:12.998Z,100786.16
2022-07-30T18:29:42.063Z,100774.41
2022-07-30T18:32:10.450Z,100772.78
2022-07-30T18:34:38.661Z,100769.53
2022-07-30T18:37:06.987Z,100766.75
2022-07-30T18:39:35.235Z,100755.44
2022-07-30T18:42:05.700Z,100753.81
2022-07-30T18:44:34.316Z,100747.88
2022-07-30T18:47:02.538Z,100742.28
2022-07-30T18:49:38.344Z,100730.19
2022-07-30T18:52:08.230Z,100720.88
2022-07-30T18:54:37.748Z,100715.97
2022-07-30T18:57:13.927Z,100713.28
2022-07-30T18:59:43.051Z,100711.69
2022-07-30T19:02:11.657Z,100707.38
2022-07-30T19:04:39.963Z,100700.63
2022-07-30T19:07:08.552Z,100703.53
2022-07-30T19:09:38.717Z,100693.88
2022-07-30T19:12:09.200Z,100695.72
2022-07-30T19:14:37.581Z,100695.41
2022-07-30T19:17:13.763Z,100695.41
2022-07-30T19:19:43.404Z,100683.03
2022-07-30T19:22:11.629Z,100697.16
2022-07-30T19:24:40.047Z,100692.84
2022-07-30T19:27:13.956Z,100693.06
2022-07-30T19:29:43.592Z,100698.69
2022-07-30T19:32:11.950Z,100690.41
2022-07-30T19:34:41.245Z,100704.25
2022-07-30T19:37:09.520Z,100709.72
2022-07-30T19:39:38.167Z,100702.75
2022-07-30T19:42:28.129Z,100709.25
2022-07-30T19:44:58.838Z,100723.31
2022-07-30T19:47:29.733Z,100722.63
2022-07-30T19:50:10.224Z,100722.03
2022-07-30T19:52:51.385Z,100712.28
2022-07-30T19:55:35.819Z,100699.13
2022-07-30T19:58:16.192Z,100702.03
2022-07-30T20:00:49.293Z,100691.56
2022-07-30T20:03:26.167Z,100690.97
2022-07-30T20:06:00.283Z,100685.84
2022-07-30T20:08:29.135Z,100676.22
2022-07-30T20:10:59.396Z,100667.94
2022-07-30T20:13:45.272Z,100665.25
2022-07-30T20:16:14.774Z,100662.59
2022-07-30T20:18:45.943Z,100657.25
2022-07-30T20:21:15.990Z,100652.69
2022-07-30T20:23:45.430Z,100654.34
2022-07-30T20:26:16.035Z,100653.19
2022-07-30T20:28:52.563Z,100651.06
2022-07-30T20:31:21.266Z,100649.91
2022-07-30T20:33:50.870Z,100649.22
2022-07-30T20:36:19.470Z,100652.13
2022-07-30T20:38:49.453Z,100655.63
2022-07-30T20:41:18.159Z,100660.16
2022-07-30T20:43:52.510Z,100660.72
2022-07-30T20:46:23.798Z,100669.22
2022-07-30T20:48:52.963Z,100672.72
2022-07-30T20:51:22.059Z,100661.41
2022-07-30T20:54:02.315Z,100660.59
2022-07-30T20:56:30.842Z,100657.38
2022-07-30T20:59:00.408Z,100656.56
2022-07-30T21:01:30.780Z,100662.72
2022-07-30T21:03:59.388Z,100664.78
2022-07-30T21:06:27.832Z,100672.25
2022-07-30T21:08:56.896Z,100664.22
2022-07-30T21:11:26.714Z,100665.59
2022-07-30T21:13:55.161Z,100663.97
2022-07-30T21:16:27.305Z,100656.44
2022-07-30T21:18:58.976Z,100662.81
2022-07-30T21:21:28.990Z,100658.31
2022-07-30T21:24:11.698Z,100663.41
2022-07-30T21:26:41.562Z,100655.38
2022-07-30T21:29:11.421Z,100654.78
2022-07-30T21:32:01.942Z,100655.84
2022-07-30T21:34:33.648Z,100661.44
2022-07-30T21:37:04.318Z,100662.47
2022-07-30T21:39:32.923Z,100652.59
2022-07-30T21:42:08.868Z,100662.47
2022-07-30T21:44:37.749Z,100658.16
2022-07-30T21:47:10.085Z,100650.13
2022-07-30T21:49:38.445Z,100648.50
2022-07-30T21:52:08.529Z,100654.91
2022-07-30T21:54:48.220Z,100651.44
2022-07-30T21:57:26.115Z,100640.72
2022-07-30T22:00:11.247Z,100642.59
2022-07-30T22:02:40.746Z,100650.63
2022-07-30T22:08:13.520Z,100645.03
2022-07-30T22:10:45.120Z,100648.75
2022-07-30T22:13:20.761Z,100650.63
2022-07-30T22:15:51.089Z,100650.81
2022-07-30T22:18:23.760Z,100653.28
2022-07-30T22:20:54.080Z,100652.69
2022-07-30T22:23:23.272Z,100658.72
2022-07-30T22:25:53.643Z,100651.53
2022-07-30T22:28:28.561Z,100657.09
2022-07-30T22:30:57.209Z,100662.69
2022-07-30T22:33:26.810Z,100656.75
2022-07-30T22:35:59.205Z,100666.88
2022-07-30T22:38:28.843Z,100666.50
2022-07-30T22:40:57.218Z,100668.97
2022-07-30T22:43:35.506Z,100661.97
2022-07-30T22:46:14.693Z,100675.59
2022-07-30T22:48:59.288Z,100675.59
2022-07-30T22:52:01.728Z,100679.31
2022-07-30T22:54:16.252Z,100683.84
2022-07-30T22:56:46.265Z,100676.84
2022-07-30T22:59:15.625Z,100680.56
2022-07-30T23:01:44.295Z,100687.78
2022-07-30T23:04:14.151Z,100700.34
2022-07-30T23:06:43.269Z,100702.19
2022-07-30T23:09:11.914Z,100709.41
2022-07-30T23:11:41.905Z,100698.72
2022-07-30T23:12:32.893Z,100651.44
2022-07-30T23:14:11.159Z,100706.50
2022-07-30T23:16:39.945Z,100723.81
2022-07-30T23:19:09.668Z,100727.50
2022-07-30T23:21:48.637Z,100725.88
2022-07-30T23:24:17.630Z,100727.50
2022-07-30T23:26:48.076Z,100733.66
2022-07-30T23:29:18.826Z,100734.28
2022-07-30T23:31:46.986Z,100742.53
2022-07-30T23:34:15.232Z,100737.75
2022-07-30T23:36:43.480Z,100724.84
2022-07-30T23:39:14.711Z,100729.97
2022-07-30T23:41:43.819Z,100737.75
2022-07-30T23:44:12.157Z,100735.31
2022-07-30T23:46:40.897Z,100724.38
2022-07-30T23:49:09.509Z,100736.13
2022-07-30T23:51:38.319Z,100743.53
2022-07-30T23:54:06.732Z,100759.75
2022-07-30T23:56:36.732Z,100779.75
2022-07-30T23:59:05.346Z,100801.94
